sensor_id;sensor_type;location;lat;lon;timestamp;P1;durP1;ratioP1;P2;durP2;ratioP2
76978;SDS011;65911;47.502;19.148;2023-02-26T00:00:47;2.42;;;1.90;;
76978;SDS011;65911;47.502;19.148;2023-02-26T00:03:50;2.73;;;1.93;;
76978;SDS011;65911;47.502;19.148;2023-02-26T00:06:53;2.40;;;1.90;;
76978;SDS011;65911;47.502;19.148;2023-02-26T00:09:58;2.33;;;1.85;;
76978;SDS011;65911;47.502;19.148;2023-02-26T00:13:02;3.30;;;2.08;;
76978;SDS011;65911;47.502;19.148;2023-02-26T00:16:09;2.47;;;2.03;;
76978;SDS011;65911;47.502;19.148;2023-02-26T00:19:16;3.30;;;2.20;;
76978;SDS011;65911;47.502;19.148;2023-02-26T00:22:18;2.30;;;2.08;;
76978;SDS011;65911;47.502;19.148;2023-02-26T00:25:21;1.60;;;1.50;;
76978;SDS011;65911;47.502;19.148;2023-02-26T00:28:26;2.33;;;2.13;;
76978;SDS011;65911;47.502;19.148;2023-02-26T00:31:29;3.88;;;1.92;;
76978;SDS011;65911;47.502;19.148;2023-02-26T00:34:31;2.47;;;2.10;;
76978;SDS011;65911;47.502;19.148;2023-02-26T00:41:03;3.13;;;2.10;;
76978;SDS011;65911;47.502;19.148;2023-02-26T00:44:07;3.40;;;2.10;;
76978;SDS011;65911;47.502;19.148;2023-02-26T00:50:32;2.80;;;2.03;;
76978;SDS011;65911;47.502;19.148;2023-02-26T00:57:15;1.90;;;1.67;;
76978;SDS011;65911;47.502;19.148;2023-02-26T01:00:17;2.50;;;2.25;;
76978;SDS011;65911;47.502;19.148;2023-02-26T01:03:20;2.63;;;2.10;;
76978;SDS011;65911;47.502;19.148;2023-02-26T01:06:23;3.17;;;2.17;;
76978;SDS011;65911;47.502;19.148;2023-02-26T01:09:31;2.42;;;1.98;;
76978;SDS011;65911;47.502;19.148;2023-02-26T01:12:37;3.67;;;2.35;;
76978;SDS011;65911;47.502;19.148;2023-02-26T01:15:39;2.53;;;1.92;;
76978;SDS011;65911;47.502;19.148;2023-02-26T01:18:47;2.65;;;2.10;;
76978;SDS011;65911;47.502;19.148;2023-02-26T01:22:03;4.13;;;2.40;;
76978;SDS011;65911;47.502;19.148;2023-02-26T01:25:17;3.90;;;2.60;;
76978;SDS011;65911;47.502;19.148;2023-02-26T01:28:24;2.20;;;2.00;;
76978;SDS011;65911;47.502;19.148;2023-02-26T01:35:04;3.08;;;2.38;;
76978;SDS011;65911;47.502;19.148;2023-02-26T01:41:35;2.85;;;1.75;;
76978;SDS011;65911;47.502;19.148;2023-02-26T01:48:21;2.50;;;2.30;;
76978;SDS011;65911;47.502;19.148;2023-02-26T01:51:48;2.63;;;2.10;;
76978;SDS011;65911;47.502;19.148;2023-02-26T01:54:56;2.08;;;1.88;;
76978;SDS011;65911;47.502;19.148;2023-02-26T01:57:58;2.08;;;1.80;;
76978;SDS011;65911;47.502;19.148;2023-02-26T02:01:02;2.93;;;1.97;;
76978;SDS011;65911;47.502;19.148;2023-02-26T02:04:06;2.80;;;1.98;;
76978;SDS011;65911;47.502;19.148;2023-02-26T02:07:11;3.55;;;2.10;;
76978;SDS011;65911;47.502;19.148;2023-02-26T02:10:13;3.13;;;2.33;;
76978;SDS011;65911;47.502;19.148;2023-02-26T02:13:18;3.28;;;2.10;;
76978;SDS011;65911;47.502;19.148;2023-02-26T02:23:19;3.53;;;2.38;;
76978;SDS011;65911;47.502;19.148;2023-02-26T02:32:50;2.20;;;2.00;;
76978;SDS011;65911;47.502;19.148;2023-02-26T02:36:04;2.30;;;2.10;;
76978;SDS011;65911;47.502;19.148;2023-02-26T02:39:13;2.67;;;2.33;;
76978;SDS011;65911;47.502;19.148;2023-02-26T02:42:22;2.63;;;2.37;;
76978;SDS011;65911;47.502;19.148;2023-02-26T02:45:31;2.65;;;2.13;;
76978;SDS011;65911;47.502;19.148;2023-02-26T02:48:38;3.15;;;2.30;;
76978;SDS011;65911;47.502;19.148;2023-02-26T02:51:58;2.53;;;2.22;;
76978;SDS011;65911;47.502;19.148;2023-02-26T02:55:06;3.90;;;2.60;;
76978;SDS011;65911;47.502;19.148;2023-02-26T02:58:17;2.95;;;2.10;;
76978;SDS011;65911;47.502;19.148;2023-02-26T03:01:22;2.80;;;2.60;;
76978;SDS011;65911;47.502;19.148;2023-02-26T03:04:26;2.40;;;2.07;;
76978;SDS011;65911;47.502;19.148;2023-02-26T03:07:32;3.70;;;2.20;;
76978;SDS011;65911;47.502;19.148;2023-02-26T03:10:37;3.63;;;2.45;;
76978;SDS011;65911;47.502;19.148;2023-02-26T03:13:40;2.60;;;2.40;;
76978;SDS011;65911;47.502;19.148;2023-02-26T03:20:08;2.58;;;2.38;;
76978;SDS011;65911;47.502;19.148;2023-02-26T03:23:35;3.63;;;2.40;;
76978;SDS011;65911;47.502;19.148;2023-02-26T03:26:42;2.95;;;2.38;;
76978;SDS011;65911;47.502;19.148;2023-02-26T03:33:13;3.40;;;2.40;;
76978;SDS011;65911;47.502;19.148;2023-02-26T03:36:28;2.30;;;2.10;;
76978;SDS011;65911;47.502;19.148;2023-02-26T03:39:55;3.65;;;2.75;;
76978;SDS011;65911;47.502;19.148;2023-02-26T03:43:05;3.28;;;2.70;;
76978;SDS011;65911;47.502;19.148;2023-02-26T03:46:13;3.20;;;2.73;;
76978;SDS011;65911;47.502;19.148;2023-02-26T03:49:19;3.80;;;2.33;;
76978;SDS011;65911;47.502;19.148;2023-02-26T03:52:25;3.20;;;2.58;;
76978;SDS011;65911;47.502;19.148;2023-02-26T03:55:40;4.22;;;2.67;;
76978;SDS011;65911;47.502;19.148;2023-02-26T03:59:12;3.35;;;2.60;;
76978;SDS011;65911;47.502;19.148;2023-02-26T04:02:17;3.65;;;2.65;;
76978;SDS011;65911;47.502;19.148;2023-02-26T04:05:25;3.72;;;2.90;;
76978;SDS011;65911;47.502;19.148;2023-02-26T04:08:29;3.90;;;2.60;;
76978;SDS011;65911;47.502;19.148;2023-02-26T04:11:31;3.60;;;3.05;;
76978;SDS011;65911;47.502;19.148;2023-02-26T04:14:33;4.25;;;3.00;;
76978;SDS011;65911;47.502;19.148;2023-02-26T04:17:36;3.53;;;2.63;;
76978;SDS011;65911;47.502;19.148;2023-02-26T04:20:38;3.60;;;2.50;;
76978;SDS011;65911;47.502;19.148;2023-02-26T04:23:41;3.15;;;2.60;;
76978;SDS011;65911;47.502;19.148;2023-02-26T04:26:43;3.38;;;2.95;;
76978;SDS011;65911;47.502;19.148;2023-02-26T04:29:47;2.80;;;2.47;;
76978;SDS011;65911;47.502;19.148;2023-02-26T04:32:49;3.72;;;2.90;;
76978;SDS011;65911;47.502;19.148;2023-02-26T04:35:51;3.00;;;2.53;;
76978;SDS011;65911;47.502;19.148;2023-02-26T04:38:54;3.30;;;2.80;;
76978;SDS011;65911;47.502;19.148;2023-02-26T04:41:57;4.05;;;2.88;;
76978;SDS011;65911;47.502;19.148;2023-02-26T04:45:00;4.25;;;2.90;;
76978;SDS011;65911;47.502;19.148;2023-02-26T04:48:03;4.00;;;2.83;;
76978;SDS011;65911;47.502;19.148;2023-02-26T04:51:05;2.75;;;2.40;;
76978;SDS011;65911;47.502;19.148;2023-02-26T04:54:08;3.35;;;2.70;;
76978;SDS011;65911;47.502;19.148;2023-02-26T04:57:10;3.80;;;2.80;;
76978;SDS011;65911;47.502;19.148;2023-02-26T05:00:13;4.10;;;3.17;;
76978;SDS011;65911;47.502;19.148;2023-02-26T05:03:16;4.18;;;3.05;;
76978;SDS011;65911;47.502;19.148;2023-02-26T05:06:19;3.55;;;3.17;;
76978;SDS011;65911;47.502;19.148;2023-02-26T05:09:21;3.10;;;2.80;;
76978;SDS011;65911;47.502;19.148;2023-02-26T05:12:23;4.28;;;2.90;;
76978;SDS011;65911;47.502;19.148;2023-02-26T05:15:26;3.45;;;2.88;;
76978;SDS011;65911;47.502;19.148;2023-02-26T05:18:28;3.30;;;2.97;;
76978;SDS011;65911;47.502;19.148;2023-02-26T05:21:30;3.58;;;2.90;;
76978;SDS011;65911;47.502;19.148;2023-02-26T05:24:33;3.22;;;2.50;;
76978;SDS011;65911;47.502;19.148;2023-02-26T05:27:35;4.05;;;2.90;;
76978;SDS011;65911;47.502;19.148;2023-02-26T05:30:38;3.33;;;3.00;;
76978;SDS011;65911;47.502;19.148;2023-02-26T05:33:41;3.42;;;2.70;;
76978;SDS011;65911;47.502;19.148;2023-02-26T05:36:43;4.00;;;3.17;;
76978;SDS011;65911;47.502;19.148;2023-02-26T05:39:46;3.83;;;2.70;;
76978;SDS011;65911;47.502;19.148;2023-02-26T05:42:48;4.03;;;3.20;;
76978;SDS011;65911;47.502;19.148;2023-02-26T05:45:50;3.97;;;3.13;;
76978;SDS011;65911;47.502;19.148;2023-02-26T05:48:53;3.60;;;3.03;;
76978;SDS011;65911;47.502;19.148;2023-02-26T05:51:55;3.28;;;2.70;;
76978;SDS011;65911;47.502;19.148;2023-02-26T05:54:58;3.67;;;2.80;;
76978;SDS011;65911;47.502;19.148;2023-02-26T05:58:00;4.03;;;2.83;;
76978;SDS011;65911;47.502;19.148;2023-02-26T06:01:02;3.53;;;3.13;;
76978;SDS011;65911;47.502;19.148;2023-02-26T06:04:05;3.58;;;3.28;;
76978;SDS011;65911;47.502;19.148;2023-02-26T06:07:07;4.13;;;2.80;;
76978;SDS011;65911;47.502;19.148;2023-02-26T06:10:10;3.40;;;2.80;;
76978;SDS011;65911;47.502;19.148;2023-02-26T06:13:12;3.95;;;3.20;;
76978;SDS011;65911;47.502;19.148;2023-02-26T06:16:15;3.33;;;2.95;;
76978;SDS011;65911;47.502;19.148;2023-02-26T06:19:19;3.67;;;3.10;;
76978;SDS011;65911;47.502;19.148;2023-02-26T06:22:22;3.38;;;2.70;;
76978;SDS011;65911;47.502;19.148;2023-02-26T06:25:24;3.35;;;2.53;;
76978;SDS011;65911;47.502;19.148;2023-02-26T06:28:27;3.67;;;3.15;;
76978;SDS011;65911;47.502;19.148;2023-02-26T06:31:29;3.38;;;3.08;;
76978;SDS011;65911;47.502;19.148;2023-02-26T06:34:31;3.40;;;2.80;;
76978;SDS011;65911;47.502;19.148;2023-02-26T06:37:34;3.35;;;3.00;;
76978;SDS011;65911;47.502;19.148;2023-02-26T06:40:36;3.13;;;2.83;;
76978;SDS011;65911;47.502;19.148;2023-02-26T06:43:38;3.78;;;3.20;;
76978;SDS011;65911;47.502;19.148;2023-02-26T06:46:41;3.65;;;2.78;;
76978;SDS011;65911;47.502;19.148;2023-02-26T06:49:43;3.37;;;2.93;;
76978;SDS011;65911;47.502;19.148;2023-02-26T06:52:45;5.78;;;3.00;;
76978;SDS011;65911;47.502;19.148;2023-02-26T06:55:49;4.70;;;3.00;;
76978;SDS011;65911;47.502;19.148;2023-02-26T06:58:52;5.00;;;3.55;;
76978;SDS011;65911;47.502;19.148;2023-02-26T07:01:54;3.20;;;2.90;;
76978;SDS011;65911;47.502;19.148;2023-02-26T07:04:58;3.60;;;3.10;;
76978;SDS011;65911;47.502;19.148;2023-02-26T07:08:00;4.72;;;3.13;;
76978;SDS011;65911;47.502;19.148;2023-02-26T07:11:02;3.40;;;3.10;;
76978;SDS011;65911;47.502;19.148;2023-02-26T07:14:04;4.80;;;3.40;;
76978;SDS011;65911;47.502;19.148;2023-02-26T07:17:06;3.53;;;2.80;;
76978;SDS011;65911;47.502;19.148;2023-02-26T07:20:09;4.07;;;3.10;;
76978;SDS011;65911;47.502;19.148;2023-02-26T07:23:13;3.83;;;3.40;;
76978;SDS011;65911;47.502;19.148;2023-02-26T07:26:15;3.90;;;3.00;;
76978;SDS011;65911;47.502;19.148;2023-02-26T07:29:18;4.18;;;2.65;;
76978;SDS011;65911;47.502;19.148;2023-02-26T07:32:21;2.83;;;2.58;;
76978;SDS011;65911;47.502;19.148;2023-02-26T07:35:23;4.07;;;3.17;;
76978;SDS011;65911;47.502;19.148;2023-02-26T07:38:26;3.67;;;2.72;;
76978;SDS011;65911;47.502;19.148;2023-02-26T07:41:29;2.97;;;2.60;;
76978;SDS011;65911;47.502;19.148;2023-02-26T07:44:31;3.80;;;3.20;;
76978;SDS011;65911;47.502;19.148;2023-02-26T07:47:33;4.32;;;2.65;;
76978;SDS011;65911;47.502;19.148;2023-02-26T07:50:35;3.33;;;2.30;;
76978;SDS011;65911;47.502;19.148;2023-02-26T07:53:38;3.85;;;2.95;;
76978;SDS011;65911;47.502;19.148;2023-02-26T07:56:40;4.63;;;3.40;;
76978;SDS011;65911;47.502;19.148;2023-02-26T07:59:43;4.25;;;2.95;;
76978;SDS011;65911;47.502;19.148;2023-02-26T08:02:45;5.40;;;4.07;;
76978;SDS011;65911;47.502;19.148;2023-02-26T08:05:48;4.95;;;3.30;;
76978;SDS011;65911;47.502;19.148;2023-02-26T08:08:50;3.85;;;3.08;;
76978;SDS011;65911;47.502;19.148;2023-02-26T08:11:52;3.50;;;2.83;;
76978;SDS011;65911;47.502;19.148;2023-02-26T08:14:55;4.05;;;2.80;;
76978;SDS011;65911;47.502;19.148;2023-02-26T08:17:57;4.43;;;3.40;;
76978;SDS011;65911;47.502;19.148;2023-02-26T08:20:59;5.47;;;3.57;;
76978;SDS011;65911;47.502;19.148;2023-02-26T08:24:01;3.50;;;2.88;;
76978;SDS011;65911;47.502;19.148;2023-02-26T08:27:03;4.65;;;3.30;;
76978;SDS011;65911;47.502;19.148;2023-02-26T08:30:06;4.47;;;3.30;;
76978;SDS011;65911;47.502;19.148;2023-02-26T08:33:08;4.18;;;3.17;;
76978;SDS011;65911;47.502;19.148;2023-02-26T08:36:11;4.72;;;3.63;;
76978;SDS011;65911;47.502;19.148;2023-02-26T08:39:13;5.05;;;3.38;;
76978;SDS011;65911;47.502;19.148;2023-02-26T08:42:15;5.80;;;3.60;;
76978;SDS011;65911;47.502;19.148;2023-02-26T08:45:17;4.82;;;2.50;;
76978;SDS011;65911;47.502;19.148;2023-02-26T08:48:20;4.88;;;2.90;;
76978;SDS011;65911;47.502;19.148;2023-02-26T08:51:22;4.63;;;3.23;;
76978;SDS011;65911;47.502;19.148;2023-02-26T08:54:25;3.85;;;2.90;;
76978;SDS011;65911;47.502;19.148;2023-02-26T08:57:27;4.07;;;2.88;;
76978;SDS011;65911;47.502;19.148;2023-02-26T09:00:29;4.13;;;3.10;;
76978;SDS011;65911;47.502;19.148;2023-02-26T09:03:32;3.83;;;2.60;;
76978;SDS011;65911;47.502;19.148;2023-02-26T09:06:34;4.30;;;2.90;;
76978;SDS011;65911;47.502;19.148;2023-02-26T09:09:36;4.65;;;2.72;;
76978;SDS011;65911;47.502;19.148;2023-02-26T09:12:39;3.80;;;2.80;;
76978;SDS011;65911;47.502;19.148;2023-02-26T09:15:41;3.30;;;2.90;;
76978;SDS011;65911;47.502;19.148;2023-02-26T09:18:44;3.85;;;2.67;;
76978;SDS011;65911;47.502;19.148;2023-02-26T09:21:46;3.47;;;2.67;;
76978;SDS011;65911;47.502;19.148;2023-02-26T09:24:49;3.28;;;2.55;;
76978;SDS011;65911;47.502;19.148;2023-02-26T09:27:51;3.22;;;2.50;;
76978;SDS011;65911;47.502;19.148;2023-02-26T09:30:54;3.35;;;2.38;;
76978;SDS011;65911;47.502;19.148;2023-02-26T09:33:56;3.55;;;2.28;;
76978;SDS011;65911;47.502;19.148;2023-02-26T09:36:58;3.53;;;2.80;;
76978;SDS011;65911;47.502;19.148;2023-02-26T09:40:00;3.97;;;2.45;;
76978;SDS011;65911;47.502;19.148;2023-02-26T09:43:17;2.53;;;2.17;;
76978;SDS011;65911;47.502;19.148;2023-02-26T09:46:27;3.10;;;2.25;;
76978;SDS011;65911;47.502;19.148;2023-02-26T09:53:04;3.63;;;2.40;;
76978;SDS011;65911;47.502;19.148;2023-02-26T09:56:19;2.75;;;1.92;;
76978;SDS011;65911;47.502;19.148;2023-02-26T09:59:25;2.88;;;2.40;;
76978;SDS011;65911;47.502;19.148;2023-02-26T10:05:40;2.90;;;2.28;;
76978;SDS011;65911;47.502;19.148;2023-02-26T10:09:03;2.95;;;2.15;;
76978;SDS011;65911;47.502;19.148;2023-02-26T10:15:22;3.37;;;2.10;;
76978;SDS011;65911;47.502;19.148;2023-02-26T10:18:28;2.90;;;1.88;;
76978;SDS011;65911;47.502;19.148;2023-02-26T10:21:38;3.35;;;2.30;;
76978;SDS011;65911;47.502;19.148;2023-02-26T10:24:54;3.73;;;2.47;;
76978;SDS011;65911;47.502;19.148;2023-02-26T10:31:43;2.88;;;2.33;;
76978;SDS011;65911;47.502;19.148;2023-02-26T10:34:56;3.60;;;2.10;;
76978;SDS011;65911;47.502;19.148;2023-02-26T10:38:13;3.65;;;2.40;;
76978;SDS011;65911;47.502;19.148;2023-02-26T10:41:19;3.65;;;2.65;;
76978;SDS011;65911;47.502;19.148;2023-02-26T10:44:31;3.65;;;2.78;;
76978;SDS011;65911;47.502;19.148;2023-02-26T10:50:59;3.72;;;2.70;;
76978;SDS011;65911;47.502;19.148;2023-02-26T10:57:19;3.70;;;2.83;;
76978;SDS011;65911;47.502;19.148;2023-02-26T11:00:25;3.60;;;2.72;;
76978;SDS011;65911;47.502;19.148;2023-02-26T11:03:34;4.05;;;2.40;;
76978;SDS011;65911;47.502;19.148;2023-02-26T11:06:48;3.85;;;2.83;;
76978;SDS011;65911;47.502;19.148;2023-02-26T11:09:51;3.15;;;2.53;;
76978;SDS011;65911;47.502;19.148;2023-02-26T11:12:53;3.60;;;2.67;;
76978;SDS011;65911;47.502;19.148;2023-02-26T11:15:56;4.00;;;3.00;;
76978;SDS011;65911;47.502;19.148;2023-02-26T11:19:00;3.80;;;2.87;;
76978;SDS011;65911;47.502;19.148;2023-02-26T11:22:02;4.05;;;3.20;;
76978;SDS011;65911;47.502;19.148;2023-02-26T11:25:05;3.95;;;3.28;;
76978;SDS011;65911;47.502;19.148;2023-02-26T11:31:33;4.65;;;3.20;;
76978;SDS011;65911;47.502;19.148;2023-02-26T11:34:35;3.85;;;3.13;;
76978;SDS011;65911;47.502;19.148;2023-02-26T11:37:39;4.72;;;3.40;;
76978;SDS011;65911;47.502;19.148;2023-02-26T11:40:44;4.20;;;3.70;;
76978;SDS011;65911;47.502;19.148;2023-02-26T11:43:54;4.15;;;3.70;;
76978;SDS011;65911;47.502;19.148;2023-02-26T11:47:41;4.45;;;3.47;;
76978;SDS011;65911;47.502;19.148;2023-02-26T11:50:38;4.53;;;3.33;;
76978;SDS011;65911;47.502;19.148;2023-02-26T11:53:57;5.22;;;4.10;;
76978;SDS011;65911;47.502;19.148;2023-02-26T11:57:05;4.03;;;3.50;;
76978;SDS011;65911;47.502;19.148;2023-02-26T12:00:52;3.97;;;3.57;;
76978;SDS011;65911;47.502;19.148;2023-02-26T12:03:39;4.15;;;3.47;;
76978;SDS011;65911;47.502;19.148;2023-02-26T12:06:48;3.97;;;3.58;;
76978;SDS011;65911;47.502;19.148;2023-02-26T12:09:51;4.82;;;3.85;;
76978;SDS011;65911;47.502;19.148;2023-02-26T12:12:56;4.10;;;3.33;;
76978;SDS011;65911;47.502;19.148;2023-02-26T12:19:39;4.38;;;3.95;;
76978;SDS011;65911;47.502;19.148;2023-02-26T12:36:18;4.43;;;3.92;;
76978;SDS011;65911;47.502;19.148;2023-02-26T12:57:35;5.60;;;4.30;;
76978;SDS011;65911;47.502;19.148;2023-02-26T13:04:16;6.82;;;4.65;;
76978;SDS011;65911;47.502;19.148;2023-02-26T13:07:35;6.30;;;4.60;;
76978;SDS011;65911;47.502;19.148;2023-02-26T13:13:59;6.68;;;4.80;;
76978;SDS011;65911;47.502;19.148;2023-02-26T13:17:23;5.57;;;4.28;;
76978;SDS011;65911;47.502;19.148;2023-02-26T13:20:28;4.97;;;4.47;;
76978;SDS011;65911;47.502;19.148;2023-02-26T13:23:34;6.05;;;5.25;;
76978;SDS011;65911;47.502;19.148;2023-02-26T13:26:39;6.00;;;4.80;;
76978;SDS011;65911;47.502;19.148;2023-02-26T13:29:50;7.50;;;4.83;;
76978;SDS011;65911;47.502;19.148;2023-02-26T13:33:00;6.50;;;5.05;;
76978;SDS011;65911;47.502;19.148;2023-02-26T13:36:04;5.90;;;4.68;;
76978;SDS011;65911;47.502;19.148;2023-02-26T13:39:25;6.80;;;4.67;;
76978;SDS011;65911;47.502;19.148;2023-02-26T13:42:38;6.38;;;4.43;;
76978;SDS011;65911;47.502;19.148;2023-02-26T13:45:48;6.38;;;4.50;;
76978;SDS011;65911;47.502;19.148;2023-02-26T13:52:04;5.05;;;3.40;;
76978;SDS011;65911;47.502;19.148;2023-02-26T13:58:51;4.18;;;3.40;;
76978;SDS011;65911;47.502;19.148;2023-02-26T14:01:55;4.50;;;3.10;;
76978;SDS011;65911;47.502;19.148;2023-02-26T14:05:06;4.10;;;3.03;;
76978;SDS011;65911;47.502;19.148;2023-02-26T14:11:42;5.00;;;2.80;;
76978;SDS011;65911;47.502;19.148;2023-02-26T14:21:54;3.50;;;2.40;;
76978;SDS011;65911;47.502;19.148;2023-02-26T14:35:11;3.90;;;2.87;;
76978;SDS011;65911;47.502;19.148;2023-02-26T14:38:17;3.90;;;2.78;;
76978;SDS011;65911;47.502;19.148;2023-02-26T14:41:36;4.97;;;3.00;;
76978;SDS011;65911;47.502;19.148;2023-02-26T14:44:43;4.10;;;3.23;;
76978;SDS011;65911;47.502;19.148;2023-02-26T14:47:48;3.30;;;2.92;;
76978;SDS011;65911;47.502;19.148;2023-02-26T14:57:35;4.22;;;3.38;;
76978;SDS011;65911;47.502;19.148;2023-02-26T15:00:51;4.13;;;3.30;;
76978;SDS011;65911;47.502;19.148;2023-02-26T15:14:06;3.72;;;2.85;;
76978;SDS011;65911;47.502;19.148;2023-02-26T15:24:09;4.45;;;2.83;;
76978;SDS011;65911;47.502;19.148;2023-02-26T15:27:15;4.32;;;2.80;;
76978;SDS011;65911;47.502;19.148;2023-02-26T15:30:18;4.45;;;2.75;;
76978;SDS011;65911;47.502;19.148;2023-02-26T15:33:22;4.78;;;2.75;;
76978;SDS011;65911;47.502;19.148;2023-02-26T15:36:27;3.55;;;2.55;;
76978;SDS011;65911;47.502;19.148;2023-02-26T15:39:30;5.20;;;3.10;;
76978;SDS011;65911;47.502;19.148;2023-02-26T15:42:36;5.68;;;3.00;;
76978;SDS011;65911;47.502;19.148;2023-02-26T15:45:43;5.25;;;2.92;;
76978;SDS011;65911;47.502;19.148;2023-02-26T15:48:47;7.73;;;3.10;;
76978;SDS011;65911;47.502;19.148;2023-02-26T15:51:50;4.85;;;3.25;;
76978;SDS011;65911;47.502;19.148;2023-02-26T15:54:57;5.65;;;3.38;;
76978;SDS011;65911;47.502;19.148;2023-02-26T15:58:02;6.32;;;3.30;;
76978;SDS011;65911;47.502;19.148;2023-02-26T16:01:06;6.18;;;3.40;;
76978;SDS011;65911;47.502;19.148;2023-02-26T16:04:13;6.30;;;3.70;;
76978;SDS011;65911;47.502;19.148;2023-02-26T16:07:19;5.65;;;3.38;;
76978;SDS011;65911;47.502;19.148;2023-02-26T16:10:35;7.00;;;3.37;;
76978;SDS011;65911;47.502;19.148;2023-02-26T16:13:40;5.70;;;3.72;;
76978;SDS011;65911;47.502;19.148;2023-02-26T16:16:45;5.72;;;3.45;;
76978;SDS011;65911;47.502;19.148;2023-02-26T16:19:52;5.47;;;3.40;;
76978;SDS011;65911;47.502;19.148;2023-02-26T16:22:58;5.85;;;3.58;;
76978;SDS011;65911;47.502;19.148;2023-02-26T16:26:04;6.28;;;3.58;;
76978;SDS011;65911;47.502;19.148;2023-02-26T16:29:13;6.47;;;3.72;;
76978;SDS011;65911;47.502;19.148;2023-02-26T16:32:17;5.30;;;3.22;;
76978;SDS011;65911;47.502;19.148;2023-02-26T16:35:21;6.03;;;3.42;;
76978;SDS011;65911;47.502;19.148;2023-02-26T16:38:26;6.90;;;4.00;;
76978;SDS011;65911;47.502;19.148;2023-02-26T16:41:33;6.30;;;3.30;;
76978;SDS011;65911;47.502;19.148;2023-02-26T16:44:38;8.13;;;3.90;;
76978;SDS011;65911;47.502;19.148;2023-02-26T16:47:48;7.53;;;4.15;;
76978;SDS011;65911;47.502;19.148;2023-02-26T16:54:04;6.70;;;3.70;;
76978;SDS011;65911;47.502;19.148;2023-02-26T16:57:16;5.68;;;4.20;;
76978;SDS011;65911;47.502;19.148;2023-02-26T17:00:42;6.38;;;4.00;;
76978;SDS011;65911;47.502;19.148;2023-02-26T17:03:50;5.53;;;3.60;;
76978;SDS011;65911;47.502;19.148;2023-02-26T17:07:00;7.78;;;3.85;;
76978;SDS011;65911;47.502;19.148;2023-02-26T17:10:38;5.57;;;3.90;;
76978;SDS011;65911;47.502;19.148;2023-02-26T17:13:35;6.20;;;4.07;;
76978;SDS011;65911;47.502;19.148;2023-02-26T17:16:39;6.80;;;4.20;;
76978;SDS011;65911;47.502;19.148;2023-02-26T17:19:41;5.95;;;3.75;;
76978;SDS011;65911;47.502;19.148;2023-02-26T17:22:43;6.70;;;4.30;;
76978;SDS011;65911;47.502;19.148;2023-02-26T17:25:47;5.95;;;3.90;;
76978;SDS011;65911;47.502;19.148;2023-02-26T17:28:51;7.25;;;4.20;;
76978;SDS011;65911;47.502;19.148;2023-02-26T17:31:53;6.65;;;4.25;;
76978;SDS011;65911;47.502;19.148;2023-02-26T17:34:56;6.88;;;4.35;;
76978;SDS011;65911;47.502;19.148;2023-02-26T17:37:58;6.50;;;4.10;;
76978;SDS011;65911;47.502;19.148;2023-02-26T17:41:01;6.20;;;3.92;;
76978;SDS011;65911;47.502;19.148;2023-02-26T17:44:04;6.47;;;3.90;;
76978;SDS011;65911;47.502;19.148;2023-02-26T17:47:17;6.78;;;4.32;;
76978;SDS011;65911;47.502;19.148;2023-02-26T17:54:02;9.00;;;4.40;;
76978;SDS011;65911;47.502;19.148;2023-02-26T17:57:05;8.35;;;4.53;;
76978;SDS011;65911;47.502;19.148;2023-02-26T18:00:09;6.20;;;4.35;;
76978;SDS011;65911;47.502;19.148;2023-02-26T18:03:21;7.60;;;4.40;;
76978;SDS011;65911;47.502;19.148;2023-02-26T18:06:24;8.05;;;4.97;;
76978;SDS011;65911;47.502;19.148;2023-02-26T18:09:26;6.82;;;4.70;;
76978;SDS011;65911;47.502;19.148;2023-02-26T18:12:28;9.98;;;5.20;;
76978;SDS011;65911;47.502;19.148;2023-02-26T18:15:30;6.63;;;4.63;;
76978;SDS011;65911;47.502;19.148;2023-02-26T18:18:33;8.23;;;4.93;;
76978;SDS011;65911;47.502;19.148;2023-02-26T18:21:35;7.22;;;4.20;;
76978;SDS011;65911;47.502;19.148;2023-02-26T18:24:37;8.13;;;4.50;;
76978;SDS011;65911;47.502;19.148;2023-02-26T18:27:41;8.13;;;4.88;;
76978;SDS011;65911;47.502;19.148;2023-02-26T18:30:44;10.13;;;5.75;;
76978;SDS011;65911;47.502;19.148;2023-02-26T18:33:47;7.28;;;4.65;;
76978;SDS011;65911;47.502;19.148;2023-02-26T18:36:49;8.57;;;5.20;;
76978;SDS011;65911;47.502;19.148;2023-02-26T18:39:52;8.55;;;5.18;;
76978;SDS011;65911;47.502;19.148;2023-02-26T18:42:54;10.55;;;5.80;;
76978;SDS011;65911;47.502;19.148;2023-02-26T18:45:57;8.73;;;4.90;;
76978;SDS011;65911;47.502;19.148;2023-02-26T18:49:02;10.70;;;6.47;;
76978;SDS011;65911;47.502;19.148;2023-02-26T18:52:04;9.52;;;6.35;;
76978;SDS011;65911;47.502;19.148;2023-02-26T18:55:07;13.33;;;7.27;;
76978;SDS011;65911;47.502;19.148;2023-02-26T18:58:10;12.10;;;7.07;;
76978;SDS011;65911;47.502;19.148;2023-02-26T19:01:12;12.10;;;6.93;;
76978;SDS011;65911;47.502;19.148;2023-02-26T19:04:14;12.95;;;7.38;;
76978;SDS011;65911;47.502;19.148;2023-02-26T19:07:17;11.35;;;6.75;;
76978;SDS011;65911;47.502;19.148;2023-02-26T19:10:19;13.23;;;7.63;;
76978;SDS011;65911;47.502;19.148;2023-02-26T19:13:23;13.35;;;6.78;;
76978;SDS011;65911;47.502;19.148;2023-02-26T19:16:25;11.77;;;6.80;;
76978;SDS011;65911;47.502;19.148;2023-02-26T19:19:28;12.57;;;6.82;;
76978;SDS011;65911;47.502;19.148;2023-02-26T19:22:30;11.00;;;7.10;;
76978;SDS011;65911;47.502;19.148;2023-02-26T19:25:33;13.23;;;7.10;;
76978;SDS011;65911;47.502;19.148;2023-02-26T19:28:35;12.30;;;6.60;;
76978;SDS011;65911;47.502;19.148;2023-02-26T19:31:38;13.45;;;6.85;;
76978;SDS011;65911;47.502;19.148;2023-02-26T19:34:40;11.63;;;7.20;;
76978;SDS011;65911;47.502;19.148;2023-02-26T19:37:43;11.80;;;6.70;;
76978;SDS011;65911;47.502;19.148;2023-02-26T19:40:46;11.70;;;7.45;;
76978;SDS011;65911;47.502;19.148;2023-02-26T19:43:48;12.95;;;6.85;;
76978;SDS011;65911;47.502;19.148;2023-02-26T19:46:50;13.70;;;7.00;;
76978;SDS011;65911;47.502;19.148;2023-02-26T19:49:53;12.38;;;7.57;;
76978;SDS011;65911;47.502;19.148;2023-02-26T19:52:55;14.20;;;7.63;;
76978;SDS011;65911;47.502;19.148;2023-02-26T19:55:59;13.93;;;8.00;;
76978;SDS011;65911;47.502;19.148;2023-02-26T19:59:05;14.38;;;7.88;;
76978;SDS011;65911;47.502;19.148;2023-02-26T20:02:07;15.60;;;8.50;;
76978;SDS011;65911;47.502;19.148;2023-02-26T20:05:10;14.57;;;8.23;;
76978;SDS011;65911;47.502;19.148;2023-02-26T20:08:18;15.50;;;8.20;;
76978;SDS011;65911;47.502;19.148;2023-02-26T20:11:20;15.15;;;7.95;;
76978;SDS011;65911;47.502;19.148;2023-02-26T20:14:23;12.55;;;7.75;;
76978;SDS011;65911;47.502;19.148;2023-02-26T20:17:28;13.73;;;7.10;;
76978;SDS011;65911;47.502;19.148;2023-02-26T20:20:30;12.25;;;7.68;;
76978;SDS011;65911;47.502;19.148;2023-02-26T20:23:33;14.23;;;7.20;;
76978;SDS011;65911;47.502;19.148;2023-02-26T20:26:37;13.27;;;7.60;;
76978;SDS011;65911;47.502;19.148;2023-02-26T20:29:40;12.05;;;6.80;;
76978;SDS011;65911;47.502;19.148;2023-02-26T20:32:42;12.57;;;7.20;;
76978;SDS011;65911;47.502;19.148;2023-02-26T20:35:44;13.27;;;7.20;;
76978;SDS011;65911;47.502;19.148;2023-02-26T20:38:47;11.05;;;6.63;;
76978;SDS011;65911;47.502;19.148;2023-02-26T20:41:49;11.80;;;6.65;;
76978;SDS011;65911;47.502;19.148;2023-02-26T20:44:51;10.68;;;6.85;;
76978;SDS011;65911;47.502;19.148;2023-02-26T20:47:53;10.63;;;5.80;;
76978;SDS011;65911;47.502;19.148;2023-02-26T20:51:02;10.77;;;6.53;;
76978;SDS011;65911;47.502;19.148;2023-02-26T20:54:07;10.57;;;6.38;;
76978;SDS011;65911;47.502;19.148;2023-02-26T20:57:10;10.60;;;6.20;;
76978;SDS011;65911;47.502;19.148;2023-02-26T21:00:13;12.27;;;6.57;;
76978;SDS011;65911;47.502;19.148;2023-02-26T21:03:16;11.18;;;6.35;;